createdAt,value
2023-05-17T00:02:51.557Z,83.30
2023-05-17T00:06:13.977Z,82.40
2023-05-17T00:09:36.476Z,82.40
2023-05-17T00:12:58.706Z,82.40
2023-05-17T00:16:21.037Z,82.40
2023-05-17T00:19:43.307Z,82.30
2023-05-17T00:23:05.625Z,82.10
2023-05-17T00:26:28.064Z,82.20
2023-05-17T00:29:50.335Z,82.30
2023-05-17T00:33:12.876Z,82.10
2023-05-17T00:36:35.485Z,82.20
2023-05-17T00:39:57.773Z,82.20
2023-05-17T00:43:20.131Z,82.40
2023-05-17T00:46:42.429Z,82.30
2023-05-17T00:50:06.337Z,82.40
2023-05-17T00:53:29.668Z,82.20
2023-05-17T00:56:53.320Z,82.20
2023-05-17T01:00:15.773Z,82.30
2023-05-17T01:03:38.729Z,82.70
2023-05-17T01:07:01.140Z,82.30
2023-05-17T01:10:39.145Z,82.40
2023-05-17T01:14:22.506Z,82.40
2023-05-17T01:17:59.648Z,82.30
2023-05-17T01:21:51.039Z,82.20
2023-05-17T01:25:38.169Z,82.20
2023-05-17T01:29:02.383Z,82.20
2023-05-17T01:32:26.221Z,82.10
2023-05-17T01:35:48.605Z,82.10
2023-05-17T01:39:11.088Z,82.00
2023-05-17T01:42:33.835Z,82.00
2023-05-17T01:45:56.170Z,81.90
2023-05-17T01:49:23.952Z,82.00
2023-05-17T01:52:51.929Z,81.90
2023-05-17T01:56:21.404Z,81.90
2023-05-17T01:59:45.594Z,81.30
2023-05-17T02:03:07.914Z,81.20
2023-05-17T02:06:30.871Z,81.10
2023-05-17T02:09:53.296Z,81.10
2023-05-17T02:13:15.997Z,81.10
2023-05-17T02:16:39.494Z,80.90
2023-05-17T02:20:01.934Z,81.00
2023-05-17T02:23:25.177Z,80.90
2023-05-17T02:26:48.727Z,80.90
2023-05-17T02:30:11.684Z,80.90
2023-05-17T02:33:34.123Z,80.80
2023-05-17T02:36:56.462Z,81.00
2023-05-17T02:40:18.833Z,80.80
2023-05-17T02:43:41.175Z,80.80
2023-05-17T02:47:03.601Z,80.80
2023-05-17T02:50:25.961Z,80.60
2023-05-17T02:53:48.292Z,80.60
2023-05-17T02:57:10.955Z,80.60
2023-05-17T03:00:33.318Z,80.60
2023-05-17T03:03:55.741Z,80.50
2023-05-17T03:07:18.279Z,80.50
2023-05-17T03:10:40.547Z,80.40
2023-05-17T03:14:04.034Z,80.60
2023-05-17T03:17:27.287Z,80.50
2023-05-17T03:20:49.791Z,80.40
2023-05-17T03:24:13.116Z,80.60
2023-05-17T03:27:36.496Z,80.30
2023-05-17T03:30:58.954Z,80.30
2023-05-17T03:34:24.954Z,80.30
2023-05-17T03:37:47.476Z,80.20
2023-05-17T03:41:10.610Z,80.20
2023-05-17T03:44:33.044Z,80.20
2023-05-17T03:47:55.357Z,80.10
2023-05-17T03:51:18.746Z,80.10
2023-05-17T03:54:41.025Z,80.20
2023-05-17T03:58:03.845Z,80.10
2023-05-17T04:01:26.252Z,80.00
2023-05-17T04:04:53.269Z,80.10
2023-05-17T04:08:16.692Z,80.90
2023-05-17T04:11:40.501Z,80.10
2023-05-17T04:15:03.702Z,80.00
2023-05-17T04:18:26.245Z,80.00
2023-05-17T04:21:52.078Z,80.00
2023-05-17T04:25:17.178Z,80.00
2023-05-17T04:28:39.521Z,79.90
2023-05-17T04:32:02.305Z,79.90
2023-05-17T04:35:24.581Z,79.80
2023-05-17T04:38:49.647Z,79.90
2023-05-17T04:42:16.472Z,79.70
2023-05-17T04:45:44.834Z,79.70
2023-05-17T04:49:07.591Z,79.70
2023-05-17T04:52:30.306Z,79.70
2023-05-17T04:55:52.825Z,79.70
2023-05-17T04:59:15.742Z,79.60
2023-05-17T05:02:38.893Z,79.60
2023-05-17T05:06:02.090Z,79.60
2023-05-17T05:09:24.403Z,79.60
2023-05-17T05:12:46.851Z,79.60
2023-05-17T05:16:09.816Z,79.70
2023-05-17T05:19:32.928Z,79.80
2023-05-17T05:22:58.497Z,79.70
2023-05-17T05:26:22.000Z,79.60
2023-05-17T05:29:46.545Z,79.70
2023-05-17T05:33:10.247Z,79.80
2023-05-17T05:36:32.933Z,80.60
2023-05-17T05:39:56.770Z,81.00
2023-05-17T05:43:19.076Z,81.20
2023-05-17T05:46:41.536Z,81.30
2023-05-17T05:50:06.018Z,81.30
2023-05-17T05:53:28.370Z,81.40
2023-05-17T05:56:51.579Z,81.10
2023-05-17T06:00:16.074Z,81.20
2023-05-17T06:03:38.473Z,81.40
2023-05-17T06:07:00.873Z,81.70
2023-05-17T06:10:24.517Z,81.60
2023-05-17T06:13:47.405Z,81.80
2023-05-17T06:17:09.696Z,81.50
2023-05-17T06:20:32.200Z,78.60
2023-05-17T06:23:54.765Z,81.60
2023-05-17T06:27:17.053Z,81.60
2023-05-17T06:30:39.398Z,81.70
2023-05-17T06:34:01.862Z,81.50
2023-05-17T06:37:24.801Z,80.50
2023-05-17T06:40:47.066Z,80.30
2023-05-17T06:44:09.349Z,78.20
2023-05-17T06:47:31.650Z,81.20
2023-05-17T06:50:54.013Z,81.80
2023-05-17T06:54:16.314Z,81.60
2023-05-17T06:57:38.650Z,81.60
2023-05-17T07:01:00.969Z,81.60
2023-05-17T07:04:23.605Z,81.90
2023-05-17T07:07:46.091Z,81.70
2023-05-17T07:11:08.383Z,81.40
2023-05-17T07:14:30.767Z,82.10
2023-05-17T07:17:53.153Z,82.50
2023-05-17T07:21:15.493Z,83.40
2023-05-17T07:24:38.862Z,82.80
2023-05-17T07:28:01.128Z,82.90
2023-05-17T07:31:23.379Z,82.90
2023-05-17T07:34:47.438Z,83.10
2023-05-17T07:38:10.862Z,83.00
2023-05-17T07:41:34.153Z,83.50
2023-05-17T07:44:56.465Z,82.30
2023-05-17T07:48:18.864Z,81.90
2023-05-17T07:51:41.300Z,82.10
2023-05-17T07:55:05.873Z,82.10
2023-05-17T07:58:28.222Z,81.90
2023-05-17T08:01:51.031Z,81.40
2023-05-17T08:05:13.281Z,81.20
2023-05-17T08:08:35.625Z,81.20
2023-05-17T08:11:57.924Z,81.30
2023-05-17T08:15:20.352Z,81.40
2023-05-17T08:18:43.788Z,81.40
2023-05-17T08:22:06.628Z,81.40
2023-05-17T08:25:29.261Z,81.90
2023-05-17T08:28:51.784Z,82.20
2023-05-17T08:32:14.089Z,82.40
2023-05-17T08:35:36.973Z,82.90
2023-05-17T08:38:59.504Z,83.10
2023-05-17T08:42:27.734Z,82.10
2023-05-17T08:45:54.222Z,83.50
2023-05-17T08:49:17.089Z,83.50
2023-05-17T08:52:40.773Z,84.00
2023-05-17T08:56:04.892Z,84.10
2023-05-17T08:59:33.598Z,83.80
2023-05-17T09:02:55.981Z,83.60
2023-05-17T09:06:21.621Z,83.70
2023-05-17T09:09:43.968Z,83.40
2023-05-17T09:13:07.162Z,83.30
2023-05-17T09:16:37.290Z,83.40
2023-05-17T09:20:00.695Z,83.30
2023-05-17T09:23:23.361Z,83.30
2023-05-17T09:26:46.328Z,83.10
2023-05-17T09:30:10.930Z,83.00
2023-05-17T09:33:33.414Z,83.40
2023-05-17T09:36:55.793Z,83.30
2023-05-17T09:40:25.626Z,83.40
2023-05-17T09:43:48.554Z,83.50
2023-05-17T09:47:11.076Z,83.50
2023-05-17T09:50:33.460Z,83.70
2023-05-17T09:53:58.117Z,83.50
2023-05-17T09:57:21.484Z,83.40
2023-05-17T10:00:44.296Z,83.40
2023-05-17T10:04:09.841Z,83.30
2023-05-17T10:07:32.786Z,83.30
2023-05-17T10:11:09.122Z,83.20
2023-05-17T10:14:32.455Z,83.60
2023-05-17T10:17:55.288Z,82.90
2023-05-17T10:21:18.069Z,82.10
2023-05-17T10:24:41.784Z,82.60
2023-05-17T10:28:07.583Z,82.70
2023-05-17T10:31:30.955Z,82.30
2023-05-17T10:35:09.218Z,82.40
2023-05-17T10:38:41.721Z,82.40
2023-05-17T10:42:14.698Z,82.30
2023-05-17T10:45:38.184Z,82.00
2023-05-17T10:49:01.523Z,82.30
2023-05-17T10:52:25.099Z,83.20
2023-05-17T10:55:47.460Z,83.30
2023-05-17T10:59:23.268Z,83.10
2023-05-17T11:02:47.790Z,83.60
2023-05-17T11:06:24.403Z,83.30
2023-05-17T11:10:10.893Z,83.00
2023-05-17T11:13:33.281Z,82.90
2023-05-17T11:16:58.341Z,83.00
2023-05-17T11:20:27.384Z,83.00
2023-05-17T11:23:58.375Z,82.80
2023-05-17T11:27:27.185Z,82.20
2023-05-17T11:30:53.698Z,81.90
2023-05-17T11:34:18.722Z,81.00
2023-05-17T11:37:43.551Z,81.10
2023-05-17T11:41:26.863Z,80.60
2023-05-17T11:44:50.555Z,80.70
2023-05-17T11:48:13.899Z,80.60
2023-05-17T11:51:36.796Z,80.60
2023-05-17T11:54:59.628Z,80.70
2023-05-17T11:58:26.835Z,81.20
2023-05-17T12:01:51.119Z,81.00
2023-05-17T12:05:20.438Z,80.80
2023-05-17T12:08:46.827Z,80.80
2023-05-17T12:12:09.713Z,81.00
2023-05-17T12:15:32.403Z,81.00
2023-05-17T12:18:54.907Z,81.00
2023-05-17T12:22:17.737Z,81.20
2023-05-17T12:25:40.214Z,81.00
2023-05-17T12:29:02.511Z,81.10
2023-05-17T12:32:25.568Z,81.10
2023-05-17T12:35:47.951Z,80.90
2023-05-17T12:39:12.211Z,80.90
2023-05-17T12:42:34.550Z,80.90
2023-05-17T12:46:09.284Z,80.80
2023-05-17T12:49:37.446Z,81.50
2023-05-17T12:52:59.840Z,80.40
2023-05-17T12:56:30.100Z,80.20
2023-05-17T12:59:53.143Z,80.40
2023-05-17T13:03:15.607Z,80.60
2023-05-17T13:07:00.149Z,80.80
2023-05-17T13:10:27.623Z,81.20
2023-05-17T13:13:50.147Z,81.20
2023-05-17T13:17:24.172Z,81.70
2023-05-17T13:20:46.595Z,82.10
2023-05-17T13:24:12.125Z,82.20
2023-05-17T13:27:34.380Z,81.90
2023-05-17T13:30:56.972Z,81.70
2023-05-17T13:34:21.148Z,82.00
2023-05-17T13:37:43.539Z,83.40
2023-05-17T13:41:07.714Z,82.70
2023-05-17T13:44:30.086Z,82.60
2023-05-17T13:47:52.463Z,82.60
2023-05-17T13:51:14.875Z,82.10
2023-05-17T13:54:37.903Z,81.00
2023-05-17T13:58:00.121Z,82.10
2023-05-17T14:01:22.715Z,82.70
2023-05-17T14:04:44.948Z,83.20
2023-05-17T14:08:08.897Z,82.70
2023-05-17T14:11:31.174Z,81.30
2023-05-17T14:14:53.509Z,80.50
2023-05-17T14:18:15.835Z,80.20
2023-05-17T14:21:38.250Z,80.40
2023-05-17T14:25:00.700Z,80.20
2023-05-17T14:28:22.991Z,80.00
2023-05-17T14:31:45.322Z,79.40
2023-05-17T14:35:08.534Z,79.30
2023-05-17T14:38:33.631Z,79.50
2023-05-17T14:41:56.429Z,79.50
2023-05-17T14:45:19.157Z,78.70
2023-05-17T14:48:42.045Z,78.70
2023-05-17T14:52:04.563Z,79.30
2023-05-17T14:55:27.171Z,79.60
2023-05-17T14:58:49.826Z,79.90
2023-05-17T15:02:12.156Z,80.10
2023-05-17T15:05:34.543Z,79.40
2023-05-17T15:08:57.521Z,79.10
2023-05-17T15:12:19.858Z,78.50
2023-05-17T15:15:43.553Z,78.70
2023-05-17T15:19:06.590Z,78.30
2023-05-17T15:22:29.317Z,78.00
2023-05-17T15:25:51.619Z,78.20
2023-05-17T15:29:13.999Z,78.70
2023-05-17T15:32:36.541Z,78.80
2023-05-17T15:35:59.104Z,78.20
2023-05-17T15:39:21.857Z,78.20
2023-05-17T15:42:44.173Z,77.60
2023-05-17T15:46:06.476Z,77.50
2023-05-17T15:49:28.857Z,77.80
2023-05-17T15:52:51.255Z,77.40
2023-05-17T15:56:14.142Z,76.80
2023-05-17T15:59:36.407Z,77.40
2023-05-17T16:02:59.869Z,78.30
2023-05-17T16:06:22.322Z,78.00
2023-05-17T16:09:44.671Z,77.40
2023-05-17T16:13:07.070Z,76.90
2023-05-17T16:16:29.642Z,76.80
2023-05-17T16:19:52.132Z,76.30
2023-05-17T16:23:14.504Z,76.10
2023-05-17T16:26:38.532Z,75.90
2023-05-17T16:30:00.926Z,76.10
2023-05-17T16:33:23.292Z,76.00
2023-05-17T16:36:47.872Z,75.80
2023-05-17T16:40:10.909Z,75.70
2023-05-17T16:43:33.389Z,77.30
2023-05-17T16:46:55.802Z,78.00
2023-05-17T16:50:18.198Z,77.80
2023-05-17T16:53:40.437Z,77.50
2023-05-17T16:57:06.588Z,77.20
2023-05-17T17:00:30.816Z,76.30
2023-05-17T17:03:53.649Z,76.10
2023-05-17T17:07:16.130Z,76.20
2023-05-17T17:10:38.452Z,77.30
2023-05-17T17:14:00.818Z,76.50
2023-05-17T17:17:23.119Z,76.90
2023-05-17T17:20:45.450Z,77.40
2023-05-17T17:24:08.176Z,76.80
2023-05-17T17:27:30.705Z,78.70
2023-05-17T17:30:53.142Z,78.60
2023-05-17T17:34:15.411Z,78.00
2023-05-17T17:37:40.333Z,78.00
2023-05-17T17:41:02.643Z,78.10
2023-05-17T17:44:25.161Z,78.30
2023-05-17T17:47:47.498Z,79.70
2023-05-17T17:51:09.905Z,80.20
2023-05-17T17:54:32.222Z,81.00
2023-05-17T17:57:54.622Z,82.70
2023-05-17T18:01:17.015Z,82.30
2023-05-17T18:04:40.607Z,82.80
2023-05-17T18:08:03.009Z,83.30
2023-05-17T18:11:26.134Z,83.90
2023-05-17T18:14:48.432Z,83.90
2023-05-17T18:18:11.137Z,84.30
2023-05-17T18:21:33.552Z,84.40
2023-05-17T18:24:55.903Z,84.90
2023-05-17T18:28:21.636Z,84.70
2023-05-17T18:31:52.203Z,84.60
2023-05-17T18:35:14.545Z,84.90
2023-05-17T18:38:36.851Z,84.80
2023-05-17T18:41:59.434Z,85.50
2023-05-17T18:45:22.004Z,86.30
2023-05-17T18:48:44.286Z,86.40
2023-05-17T18:52:06.773Z,83.40
2023-05-17T18:55:29.100Z,82.50
2023-05-17T18:58:52.966Z,83.80
2023-05-17T19:02:15.288Z,77.00
2023-05-17T19:05:37.551Z,80.00
2023-05-17T19:08:59.895Z,81.60
2023-05-17T19:12:22.176Z,81.90
2023-05-17T19:15:44.444Z,79.60
2023-05-17T19:19:07.936Z,74.40
2023-05-17T19:22:30.599Z,74.10
2023-05-17T19:25:55.278Z,74.10
2023-05-17T19:29:17.664Z,74.60
2023-05-17T19:32:40.015Z,74.70
2023-05-17T19:36:02.872Z,74.80
2023-05-17T19:39:25.582Z,75.10
2023-05-17T19:42:48.507Z,74.90
2023-05-17T19:46:12.184Z,74.80
2023-05-17T19:49:34.627Z,75.90
2023-05-17T19:52:56.963Z,78.30
2023-05-17T19:56:19.324Z,79.30
2023-05-17T19:59:41.969Z,78.70
2023-05-17T20:03:05.143Z,78.00
2023-05-17T20:06:27.534Z,77.50
2023-05-17T20:09:50.174Z,78.30
2023-05-17T20:13:12.713Z,78.50
2023-05-17T20:16:35.288Z,79.00
2023-05-17T20:19:57.766Z,79.30
2023-05-17T20:23:20.056Z,79.80
2023-05-17T20:26:45.094Z,80.40
2023-05-17T20:30:07.789Z,81.10
2023-05-17T20:33:30.292Z,80.40
2023-05-17T20:36:52.568Z,80.70
2023-05-17T20:40:14.929Z,79.90
2023-05-17T20:43:37.709Z,79.60
2023-05-17T20:47:00.120Z,79.60
2023-05-17T20:50:22.810Z,79.80
2023-05-17T20:53:46.525Z,79.60
2023-05-17T20:57:08.990Z,79.80
2023-05-17T21:00:31.635Z,79.80
2023-05-17T21:03:54.386Z,79.90
2023-05-17T21:07:17.483Z,79.80
2023-05-17T21:10:42.746Z,79.80
2023-05-17T21:14:05.070Z,80.10
2023-05-17T21:17:27.521Z,83.10
2023-05-17T21:20:53.449Z,80.60
2023-05-17T21:24:16.142Z,80.20
2023-05-17T21:27:38.533Z,80.10
2023-05-17T21:31:01.428Z,80.10
2023-05-17T21:34:23.721Z,79.90
2023-05-17T21:37:46.036Z,79.80
2023-05-17T21:41:08.300Z,80.70
2023-05-17T21:44:30.655Z,80.30
2023-05-17T21:47:53.137Z,80.60
2023-05-17T21:51:15.496Z,79.90
2023-05-17T21:54:37.953Z,80.00
2023-05-17T21:58:00.189Z,80.00
2023-05-17T22:01:24.260Z,80.10
2023-05-17T22:04:46.948Z,79.90
2023-05-17T22:08:09.247Z,80.90
2023-05-17T22:11:31.526Z,80.30
2023-05-17T22:14:55.938Z,79.00
2023-05-17T22:18:19.427Z,78.50
2023-05-17T22:21:42.178Z,78.50
2023-05-17T22:25:06.884Z,78.60
2023-05-17T22:28:29.200Z,78.60
2023-05-17T22:31:51.780Z,78.80
2023-05-17T22:35:14.143Z,78.80
2023-05-17T22:38:36.467Z,78.80
2023-05-17T22:41:58.762Z,78.80
2023-05-17T22:45:21.240Z,78.90
2023-05-17T22:48:43.599Z,78.90
2023-05-17T22:52:07.661Z,78.90
2023-05-17T22:55:30.123Z,79.10
2023-05-17T22:58:52.677Z,78.90
2023-05-17T23:02:14.968Z,79.00
2023-05-17T23:05:37.831Z,79.10
2023-05-17T23:09:02.610Z,79.10
2023-05-17T23:12:27.518Z,79.30
2023-05-17T23:15:51.035Z,79.20
2023-05-17T23:19:13.716Z,79.30
2023-05-17T23:22:36.891Z,79.30
2023-05-17T23:25:59.271Z,79.30
2023-05-17T23:29:22.122Z,79.20
2023-05-17T23:32:46.784Z,79.30
2023-05-17T23:36:09.190Z,79.30
2023-05-17T23:39:31.601Z,79.30
2023-05-17T23:42:53.953Z,79.30
2023-05-17T23:46:19.670Z,79.30
2023-05-17T23:49:42.192Z,79.20
2023-05-17T23:53:04.627Z,79.20
2023-05-17T23:56:27.030Z,79.20
2023-05-17T23:59:49.570Z,79.20
